sensor_id;sensor_type;location;lat;lon;timestamp;temperature;humidity
20568;DHT22;10442;49.932;11.592;2022-09-21T00:01:28;9.70;78.80
20568;DHT22;10442;49.932;11.592;2022-09-21T00:04:01;9.70;78.80
20568;DHT22;10442;49.932;11.592;2022-09-21T00:06:31;9.70;78.90
20568;DHT22;10442;49.932;11.592;2022-09-21T00:08:59;9.70;78.80
20568;DHT22;10442;49.932;11.592;2022-09-21T00:11:29;9.70;78.70
20568;DHT22;10442;49.932;11.592;2022-09-21T00:14:06;9.70;78.80
20568;DHT22;10442;49.932;11.592;2022-09-21T00:16:35;9.70;79.20
20568;DHT22;10442;49.932;11.592;2022-09-21T00:19:03;9.70;78.90
20568;DHT22;10442;49.932;11.592;2022-09-21T00:21:31;9.70;78.70
20568;DHT22;10442;49.932;11.592;2022-09-21T00:23:58;9.70;78.70
20568;DHT22;10442;49.932;11.592;2022-09-21T00:26:26;9.70;78.60
20568;DHT22;10442;49.932;11.592;2022-09-21T00:28:56;9.70;78.50
20568;DHT22;10442;49.932;11.592;2022-09-21T00:31:25;9.70;78.30
20568;DHT22;10442;49.932;11.592;2022-09-21T00:33:53;9.70;78.30
20568;DHT22;10442;49.932;11.592;2022-09-21T00:36:23;9.70;78.00
20568;DHT22;10442;49.932;11.592;2022-09-21T00:38:56;9.70;78.10
20568;DHT22;10442;49.932;11.592;2022-09-21T00:41:25;9.70;78.10
20568;DHT22;10442;49.932;11.592;2022-09-21T00:46:47;9.60;78.00
20568;DHT22;10442;49.932;11.592;2022-09-21T00:49:16;9.60;77.80
20568;DHT22;10442;49.932;11.592;2022-09-21T00:51:44;9.60;77.80
20568;DHT22;10442;49.932;11.592;2022-09-21T00:54:25;9.60;77.90
20568;DHT22;10442;49.932;11.592;2022-09-21T00:56:54;9.60;78.10
20568;DHT22;10442;49.932;11.592;2022-09-21T00:59:22;9.50;78.00
20568;DHT22;10442;49.932;11.592;2022-09-21T01:01:57;9.50;78.20
20568;DHT22;10442;49.932;11.592;2022-09-21T01:04:26;9.50;78.90
20568;DHT22;10442;49.932;11.592;2022-09-21T01:06:56;9.50;78.10
20568;DHT22;10442;49.932;11.592;2022-09-21T01:09:24;9.50;78.00
20568;DHT22;10442;49.932;11.592;2022-09-21T01:12:00;9.50;77.80
20568;DHT22;10442;49.932;11.592;2022-09-21T01:14:52;9.50;77.60
20568;DHT22;10442;49.932;11.592;2022-09-21T01:17:51;9.50;77.80
20568;DHT22;10442;49.932;11.592;2022-09-21T01:32:14;9.30;78.30
20568;DHT22;10442;49.932;11.592;2022-09-21T01:34:51;9.30;78.30
20568;DHT22;10442;49.932;11.592;2022-09-21T01:37:23;9.30;78.20
20568;DHT22;10442;49.932;11.592;2022-09-21T01:39:55;9.30;78.20
20568;DHT22;10442;49.932;11.592;2022-09-21T01:42:27;9.20;78.40
20568;DHT22;10442;49.932;11.592;2022-09-21T01:44:57;9.20;78.40
20568;DHT22;10442;49.932;11.592;2022-09-21T01:47:27;9.20;78.60
20568;DHT22;10442;49.932;11.592;2022-09-21T01:50:00;9.20;78.70
20568;DHT22;10442;49.932;11.592;2022-09-21T01:52:30;9.20;78.80
20568;DHT22;10442;49.932;11.592;2022-09-21T01:55:22;9.10;78.80
20568;DHT22;10442;49.932;11.592;2022-09-21T02:00:54;9.10;78.90
20568;DHT22;10442;49.932;11.592;2022-09-21T02:03:29;9.10;78.80
20568;DHT22;10442;49.932;11.592;2022-09-21T02:06:00;9.00;78.80
20568;DHT22;10442;49.932;11.592;2022-09-21T02:08:32;9.00;79.10
20568;DHT22;10442;49.932;11.592;2022-09-21T02:11:01;9.00;79.40
20568;DHT22;10442;49.932;11.592;2022-09-21T02:13:33;9.00;79.40
20568;DHT22;10442;49.932;11.592;2022-09-21T02:18:52;9.10;79.50
20568;DHT22;10442;49.932;11.592;2022-09-21T02:22:04;9.10;79.30
20568;DHT22;10442;49.932;11.592;2022-09-21T02:24:40;9.10;79.10
20568;DHT22;10442;49.932;11.592;2022-09-21T02:30:19;9.00;78.90
20568;DHT22;10442;49.932;11.592;2022-09-21T02:38:14;9.00;79.10
20568;DHT22;10442;49.932;11.592;2022-09-21T02:41:04;9.00;79.10
20568;DHT22;10442;49.932;11.592;2022-09-21T02:43:38;9.00;79.20
20568;DHT22;10442;49.932;11.592;2022-09-21T02:46:18;9.00;79.10
20568;DHT22;10442;49.932;11.592;2022-09-21T02:48:50;9.00;79.20
20568;DHT22;10442;49.932;11.592;2022-09-21T02:51:22;9.00;79.40
20568;DHT22;10442;49.932;11.592;2022-09-21T02:53:52;8.90;79.00
20568;DHT22;10442;49.932;11.592;2022-09-21T02:56:20;8.90;79.10
20568;DHT22;10442;49.932;11.592;2022-09-21T02:58:52;8.90;79.10
20568;DHT22;10442;49.932;11.592;2022-09-21T03:01:21;8.90;79.30
20568;DHT22;10442;49.932;11.592;2022-09-21T03:03:50;8.90;79.00
20568;DHT22;10442;49.932;11.592;2022-09-21T03:06:17;8.90;78.80
20568;DHT22;10442;49.932;11.592;2022-09-21T03:08:44;8.90;78.80
20568;DHT22;10442;49.932;11.592;2022-09-21T03:11:16;8.90;79.00
20568;DHT22;10442;49.932;11.592;2022-09-21T03:13:43;8.90;79.00
20568;DHT22;10442;49.932;11.592;2022-09-21T03:16:11;8.90;79.00
20568;DHT22;10442;49.932;11.592;2022-09-21T03:18:40;8.80;78.70
20568;DHT22;10442;49.932;11.592;2022-09-21T03:21:08;8.80;78.80
20568;DHT22;10442;49.932;11.592;2022-09-21T03:23:36;8.80;78.90
20568;DHT22;10442;49.932;11.592;2022-09-21T03:26:03;8.80;79.10
20568;DHT22;10442;49.932;11.592;2022-09-21T03:28:31;8.80;79.40
20568;DHT22;10442;49.932;11.592;2022-09-21T03:30:58;8.80;79.40
20568;DHT22;10442;49.932;11.592;2022-09-21T03:33:26;8.80;79.50
20568;DHT22;10442;49.932;11.592;2022-09-21T03:35:53;8.80;79.50
20568;DHT22;10442;49.932;11.592;2022-09-21T03:38:20;8.80;79.40
20568;DHT22;10442;49.932;11.592;2022-09-21T03:40:48;8.80;79.50
20568;DHT22;10442;49.932;11.592;2022-09-21T03:43:17;8.80;79.40
20568;DHT22;10442;49.932;11.592;2022-09-21T03:45:44;8.80;80.10
20568;DHT22;10442;49.932;11.592;2022-09-21T03:48:13;8.80;79.30
20568;DHT22;10442;49.932;11.592;2022-09-21T03:50:41;8.80;79.40
20568;DHT22;10442;49.932;11.592;2022-09-21T03:53:10;8.70;79.60
20568;DHT22;10442;49.932;11.592;2022-09-21T03:55:38;8.80;79.20
20568;DHT22;10442;49.932;11.592;2022-09-21T03:58:05;8.80;79.30
20568;DHT22;10442;49.932;11.592;2022-09-21T04:00:33;8.80;79.40
20568;DHT22;10442;49.932;11.592;2022-09-21T04:03:01;8.80;79.40
20568;DHT22;10442;49.932;11.592;2022-09-21T04:05:28;8.80;79.40
20568;DHT22;10442;49.932;11.592;2022-09-21T04:07:56;8.80;79.50
20568;DHT22;10442;49.932;11.592;2022-09-21T04:10:24;8.80;79.60
20568;DHT22;10442;49.932;11.592;2022-09-21T04:12:59;8.80;79.80
20568;DHT22;10442;49.932;11.592;2022-09-21T04:15:27;8.80;79.80
20568;DHT22;10442;49.932;11.592;2022-09-21T04:17:56;8.80;79.60
20568;DHT22;10442;49.932;11.592;2022-09-21T04:20:24;8.80;79.40
20568;DHT22;10442;49.932;11.592;2022-09-21T04:22:51;8.90;79.30
20568;DHT22;10442;49.932;11.592;2022-09-21T04:25:19;8.90;79.10
20568;DHT22;10442;49.932;11.592;2022-09-21T04:27:46;8.90;79.10
20568;DHT22;10442;49.932;11.592;2022-09-21T04:30:15;8.90;78.90
20568;DHT22;10442;49.932;11.592;2022-09-21T04:32:43;8.90;78.80
20568;DHT22;10442;49.932;11.592;2022-09-21T04:35:10;8.90;78.60
20568;DHT22;10442;49.932;11.592;2022-09-21T04:37:38;8.90;78.40
20568;DHT22;10442;49.932;11.592;2022-09-21T04:40:06;8.80;78.60
20568;DHT22;10442;49.932;11.592;2022-09-21T04:42:34;8.80;78.70
20568;DHT22;10442;49.932;11.592;2022-09-21T04:45:02;8.80;78.60
20568;DHT22;10442;49.932;11.592;2022-09-21T04:47:30;8.80;78.60
20568;DHT22;10442;49.932;11.592;2022-09-21T04:49:58;8.80;78.60
20568;DHT22;10442;49.932;11.592;2022-09-21T04:52:25;8.70;78.40
20568;DHT22;10442;49.932;11.592;2022-09-21T04:54:53;8.70;78.40
20568;DHT22;10442;49.932;11.592;2022-09-21T04:57:20;8.70;78.40
20568;DHT22;10442;49.932;11.592;2022-09-21T04:59:48;8.70;78.50
20568;DHT22;10442;49.932;11.592;2022-09-21T05:02:15;8.70;78.50
20568;DHT22;10442;49.932;11.592;2022-09-21T05:04:43;8.70;78.40
20568;DHT22;10442;49.932;11.592;2022-09-21T05:07:16;8.60;78.30
20568;DHT22;10442;49.932;11.592;2022-09-21T05:09:44;8.60;78.10
20568;DHT22;10442;49.932;11.592;2022-09-21T05:12:33;8.60;78.10
20568;DHT22;10442;49.932;11.592;2022-09-21T05:15:06;8.60;78.10
20568;DHT22;10442;49.932;11.592;2022-09-21T05:17:34;8.60;77.80
20568;DHT22;10442;49.932;11.592;2022-09-21T05:20:03;8.60;77.70
20568;DHT22;10442;49.932;11.592;2022-09-21T05:22:30;8.50;77.60
20568;DHT22;10442;49.932;11.592;2022-09-21T05:24:58;8.50;77.70
20568;DHT22;10442;49.932;11.592;2022-09-21T05:27:25;8.50;77.50
20568;DHT22;10442;49.932;11.592;2022-09-21T05:29:53;8.50;77.40
20568;DHT22;10442;49.932;11.592;2022-09-21T05:32:31;8.50;77.40
20568;DHT22;10442;49.932;11.592;2022-09-21T05:38:10;8.50;77.50
20568;DHT22;10442;49.932;11.592;2022-09-21T05:40:39;8.50;77.60
20568;DHT22;10442;49.932;11.592;2022-09-21T05:43:08;8.50;77.50
20568;DHT22;10442;49.932;11.592;2022-09-21T05:45:40;8.50;77.50
20568;DHT22;10442;49.932;11.592;2022-09-21T05:48:17;8.50;78.40
20568;DHT22;10442;49.932;11.592;2022-09-21T05:56:34;8.50;77.80
20568;DHT22;10442;49.932;11.592;2022-09-21T05:59:49;8.60;77.70
20568;DHT22;10442;49.932;11.592;2022-09-21T06:02:17;8.60;77.50
20568;DHT22;10442;49.932;11.592;2022-09-21T06:04:47;8.60;77.60
20568;DHT22;10442;49.932;11.592;2022-09-21T06:07:15;8.60;77.50
20568;DHT22;10442;49.932;11.592;2022-09-21T06:09:43;8.60;77.60
20568;DHT22;10442;49.932;11.592;2022-09-21T06:12:10;8.60;77.70
20568;DHT22;10442;49.932;11.592;2022-09-21T06:14:38;8.60;77.50
20568;DHT22;10442;49.932;11.592;2022-09-21T06:17:05;8.60;77.50
20568;DHT22;10442;49.932;11.592;2022-09-21T06:19:33;8.60;77.30
20568;DHT22;10442;49.932;11.592;2022-09-21T06:22:00;8.60;77.30
20568;DHT22;10442;49.932;11.592;2022-09-21T06:24:28;8.60;77.10
20568;DHT22;10442;49.932;11.592;2022-09-21T06:26:55;8.60;76.90
20568;DHT22;10442;49.932;11.592;2022-09-21T06:29:23;8.70;77.00
20568;DHT22;10442;49.932;11.592;2022-09-21T06:31:50;8.70;77.20
20568;DHT22;10442;49.932;11.592;2022-09-21T06:34:17;8.70;77.40
20568;DHT22;10442;49.932;11.592;2022-09-21T06:36:45;8.70;77.40
20568;DHT22;10442;49.932;11.592;2022-09-21T06:39:12;8.70;77.50
20568;DHT22;10442;49.932;11.592;2022-09-21T06:41:39;8.70;77.40
20568;DHT22;10442;49.932;11.592;2022-09-21T06:44:09;8.70;77.40
20568;DHT22;10442;49.932;11.592;2022-09-21T06:46:37;8.80;77.50
20568;DHT22;10442;49.932;11.592;2022-09-21T06:49:04;8.80;78.20
20568;DHT22;10442;49.932;11.592;2022-09-21T06:51:32;8.80;77.10
20568;DHT22;10442;49.932;11.592;2022-09-21T06:53:59;8.90;76.30
20568;DHT22;10442;49.932;11.592;2022-09-21T06:56:27;8.90;76.20
20568;DHT22;10442;49.932;11.592;2022-09-21T06:58:55;8.90;76.50
20568;DHT22;10442;49.932;11.592;2022-09-21T07:01:22;8.90;76.70
20568;DHT22;10442;49.932;11.592;2022-09-21T07:03:51;9.00;76.80
20568;DHT22;10442;49.932;11.592;2022-09-21T07:06:19;9.00;76.70
20568;DHT22;10442;49.932;11.592;2022-09-21T07:08:47;9.10;76.80
20568;DHT22;10442;49.932;11.592;2022-09-21T07:11:37;9.20;76.80
20568;DHT22;10442;49.932;11.592;2022-09-21T07:14:07;9.30;76.50
20568;DHT22;10442;49.932;11.592;2022-09-21T07:16:35;9.30;76.20
20568;DHT22;10442;49.932;11.592;2022-09-21T07:19:03;9.40;76.30
20568;DHT22;10442;49.932;11.592;2022-09-21T07:21:38;9.40;76.30
20568;DHT22;10442;49.932;11.592;2022-09-21T07:24:05;9.50;76.60
20568;DHT22;10442;49.932;11.592;2022-09-21T07:26:38;9.50;76.30
20568;DHT22;10442;49.932;11.592;2022-09-21T07:29:06;9.50;75.70
20568;DHT22;10442;49.932;11.592;2022-09-21T07:31:33;9.60;75.70
20568;DHT22;10442;49.932;11.592;2022-09-21T07:34:01;9.60;76.00
20568;DHT22;10442;49.932;11.592;2022-09-21T07:36:29;9.70;75.70
20568;DHT22;10442;49.932;11.592;2022-09-21T07:38:57;9.70;75.60
20568;DHT22;10442;49.932;11.592;2022-09-21T07:41:24;9.70;75.80
20568;DHT22;10442;49.932;11.592;2022-09-21T07:43:52;9.70;75.90
20568;DHT22;10442;49.932;11.592;2022-09-21T07:46:19;9.80;76.00
20568;DHT22;10442;49.932;11.592;2022-09-21T07:48:47;9.90;75.90
20568;DHT22;10442;49.932;11.592;2022-09-21T07:51:15;9.90;75.80
20568;DHT22;10442;49.932;11.592;2022-09-21T07:53:43;10.00;76.00
20568;DHT22;10442;49.932;11.592;2022-09-21T07:56:13;10.00;75.80
20568;DHT22;10442;49.932;11.592;2022-09-21T07:58:42;10.10;75.80
20568;DHT22;10442;49.932;11.592;2022-09-21T08:01:28;10.20;75.90
20568;DHT22;10442;49.932;11.592;2022-09-21T08:03:57;10.30;76.10
20568;DHT22;10442;49.932;11.592;2022-09-21T08:06:27;10.30;76.00
20568;DHT22;10442;49.932;11.592;2022-09-21T08:08:56;10.40;75.60
20568;DHT22;10442;49.932;11.592;2022-09-21T08:11:26;10.50;75.50
20568;DHT22;10442;49.932;11.592;2022-09-21T08:13:59;10.50;75.10
20568;DHT22;10442;49.932;11.592;2022-09-21T08:16:28;10.60;74.80
20568;DHT22;10442;49.932;11.592;2022-09-21T08:18:56;10.70;74.90
20568;DHT22;10442;49.932;11.592;2022-09-21T08:21:24;10.80;74.90
20568;DHT22;10442;49.932;11.592;2022-09-21T08:23:51;10.90;75.00
20568;DHT22;10442;49.932;11.592;2022-09-21T08:26:19;11.00;75.00
20568;DHT22;10442;49.932;11.592;2022-09-21T08:28:49;11.10;75.10
20568;DHT22;10442;49.932;11.592;2022-09-21T08:31:19;11.20;74.90
20568;DHT22;10442;49.932;11.592;2022-09-21T08:33:48;11.30;74.70
20568;DHT22;10442;49.932;11.592;2022-09-21T08:36:17;11.30;74.30
20568;DHT22;10442;49.932;11.592;2022-09-21T08:38:45;11.50;74.10
20568;DHT22;10442;49.932;11.592;2022-09-21T08:41:19;11.60;74.50
20568;DHT22;10442;49.932;11.592;2022-09-21T08:43:52;11.70;74.50
20568;DHT22;10442;49.932;11.592;2022-09-21T08:46:27;11.90;74.40
20568;DHT22;10442;49.932;11.592;2022-09-21T08:49:00;12.00;73.80
20568;DHT22;10442;49.932;11.592;2022-09-21T08:51:33;12.20;73.70
20568;DHT22;10442;49.932;11.592;2022-09-21T08:54:11;12.30;73.70
20568;DHT22;10442;49.932;11.592;2022-09-21T08:56:41;12.40;73.30
20568;DHT22;10442;49.932;11.592;2022-09-21T08:59:28;12.60;72.90
20568;DHT22;10442;49.932;11.592;2022-09-21T09:15:54;13.70;71.40
20568;DHT22;10442;49.932;11.592;2022-09-21T09:18:35;14.00;71.20
20568;DHT22;10442;49.932;11.592;2022-09-21T09:21:38;14.20;70.90
20568;DHT22;10442;49.932;11.592;2022-09-21T09:27:05;14.60;69.40
20568;DHT22;10442;49.932;11.592;2022-09-21T09:32:12;15.00;69.00
20568;DHT22;10442;49.932;11.592;2022-09-21T09:37:38;15.20;69.30
20568;DHT22;10442;49.932;11.592;2022-09-21T09:40:07;15.30;69.10
20568;DHT22;10442;49.932;11.592;2022-09-21T09:48:01;15.30;67.70
20568;DHT22;10442;49.932;11.592;2022-09-21T09:50:37;15.30;68.00
20568;DHT22;10442;49.932;11.592;2022-09-21T09:53:10;15.40;68.30
20568;DHT22;10442;49.932;11.592;2022-09-21T09:55:41;15.40;68.30
20568;DHT22;10442;49.932;11.592;2022-09-21T10:00:45;15.50;68.10
20568;DHT22;10442;49.932;11.592;2022-09-21T10:03:21;15.60;67.90
20568;DHT22;10442;49.932;11.592;2022-09-21T10:05:50;15.60;67.10
20568;DHT22;10442;49.932;11.592;2022-09-21T10:11:10;15.70;67.10
20568;DHT22;10442;49.932;11.592;2022-09-21T10:13:44;15.80;66.80
20568;DHT22;10442;49.932;11.592;2022-09-21T10:18:52;15.90;67.20
20568;DHT22;10442;49.932;11.592;2022-09-21T10:23:55;15.90;67.00
20568;DHT22;10442;49.932;11.592;2022-09-21T10:26:23;16.00;68.00
20568;DHT22;10442;49.932;11.592;2022-09-21T10:32:00;16.30;68.00
20568;DHT22;10442;49.932;11.592;2022-09-21T10:34:33;16.40;68.30
20568;DHT22;10442;49.932;11.592;2022-09-21T10:39:51;16.70;66.90
20568;DHT22;10442;49.932;11.592;2022-09-21T10:42:19;16.80;65.10
20568;DHT22;10442;49.932;11.592;2022-09-21T10:44:51;16.90;65.10
20568;DHT22;10442;49.932;11.592;2022-09-21T10:47:34;16.90;64.60
20568;DHT22;10442;49.932;11.592;2022-09-21T10:55:43;16.90;63.90
20568;DHT22;10442;49.932;11.592;2022-09-21T10:58:34;16.90;63.40
20568;DHT22;10442;49.932;11.592;2022-09-21T11:01:12;16.90;64.00
20568;DHT22;10442;49.932;11.592;2022-09-21T11:03:58;16.90;64.20
20568;DHT22;10442;49.932;11.592;2022-09-21T11:06:30;16.90;64.30
20568;DHT22;10442;49.932;11.592;2022-09-21T11:09:02;17.00;64.60
20568;DHT22;10442;49.932;11.592;2022-09-21T11:11:45;17.10;64.00
20568;DHT22;10442;49.932;11.592;2022-09-21T11:14:47;17.30;65.20
20568;DHT22;10442;49.932;11.592;2022-09-21T11:19:55;17.70;65.00
20568;DHT22;10442;49.932;11.592;2022-09-21T11:22:31;17.90;63.50
20568;DHT22;10442;49.932;11.592;2022-09-21T11:31:04;18.30;61.40
20568;DHT22;10442;49.932;11.592;2022-09-21T11:39:19;18.40;61.50
20568;DHT22;10442;49.932;11.592;2022-09-21T11:42:12;18.50;62.10
20568;DHT22;10442;49.932;11.592;2022-09-21T11:44:52;18.60;62.00
20568;DHT22;10442;49.932;11.592;2022-09-21T11:50:29;18.80;59.70
20568;DHT22;10442;49.932;11.592;2022-09-21T11:56:19;18.90;60.30
20568;DHT22;10442;49.932;11.592;2022-09-21T12:04:49;19.10;60.30
20568;DHT22;10442;49.932;11.592;2022-09-21T12:07:32;19.10;60.80
20568;DHT22;10442;49.932;11.592;2022-09-21T12:13:21;19.40;59.50
20568;DHT22;10442;49.932;11.592;2022-09-21T12:18:49;19.50;56.80
20568;DHT22;10442;49.932;11.592;2022-09-21T12:21:51;19.50;56.50
20568;DHT22;10442;49.932;11.592;2022-09-21T12:24:30;19.60;57.70
20568;DHT22;10442;49.932;11.592;2022-09-21T12:27:13;19.60;56.00
20568;DHT22;10442;49.932;11.592;2022-09-21T12:29:48;19.70;54.90
20568;DHT22;10442;49.932;11.592;2022-09-21T12:35:11;19.70;54.50
20568;DHT22;10442;49.932;11.592;2022-09-21T12:37:48;19.70;55.10
20568;DHT22;10442;49.932;11.592;2022-09-21T12:40:37;19.60;56.00
20568;DHT22;10442;49.932;11.592;2022-09-21T12:43:41;19.60;56.10
20568;DHT22;10442;49.932;11.592;2022-09-21T12:48:43;19.50;56.30
20568;DHT22;10442;49.932;11.592;2022-09-21T12:51:19;19.40;55.80
20568;DHT22;10442;49.932;11.592;2022-09-21T12:53:51;19.40;56.20
20568;DHT22;10442;49.932;11.592;2022-09-21T12:56:42;19.30;55.60
20568;DHT22;10442;49.932;11.592;2022-09-21T13:01:48;19.10;55.90
20568;DHT22;10442;49.932;11.592;2022-09-21T13:04:38;19.10;56.50
20568;DHT22;10442;49.932;11.592;2022-09-21T13:13:29;18.90;56.30
20568;DHT22;10442;49.932;11.592;2022-09-21T13:15:58;18.80;55.00
20568;DHT22;10442;49.932;11.592;2022-09-21T13:18:34;18.80;56.10
20568;DHT22;10442;49.932;11.592;2022-09-21T13:21:20;18.70;55.50
20568;DHT22;10442;49.932;11.592;2022-09-21T13:23:53;18.70;55.60
20568;DHT22;10442;49.932;11.592;2022-09-21T13:26:35;18.60;56.10
20568;DHT22;10442;49.932;11.592;2022-09-21T13:29:23;18.50;55.90
20568;DHT22;10442;49.932;11.592;2022-09-21T13:32:00;18.50;55.60
20568;DHT22;10442;49.932;11.592;2022-09-21T13:34:41;18.50;56.30
20568;DHT22;10442;49.932;11.592;2022-09-21T13:47:46;19.10;51.70
20568;DHT22;10442;49.932;11.592;2022-09-21T13:50:38;19.20;53.50
20568;DHT22;10442;49.932;11.592;2022-09-21T13:53:18;19.30;52.80
20568;DHT22;10442;49.932;11.592;2022-09-21T13:56:01;19.30;52.50
20568;DHT22;10442;49.932;11.592;2022-09-21T13:58:41;19.30;52.30
20568;DHT22;10442;49.932;11.592;2022-09-21T14:01:30;19.30;51.10
20568;DHT22;10442;49.932;11.592;2022-09-21T14:04:23;19.30;51.70
20568;DHT22;10442;49.932;11.592;2022-09-21T14:06:53;19.20;52.50
20568;DHT22;10442;49.932;11.592;2022-09-21T14:09:26;19.10;52.80
20568;DHT22;10442;49.932;11.592;2022-09-21T14:12:01;19.00;52.90
20568;DHT22;10442;49.932;11.592;2022-09-21T14:14:35;18.90;53.50
20568;DHT22;10442;49.932;11.592;2022-09-21T14:17:37;18.80;53.30
20568;DHT22;10442;49.932;11.592;2022-09-21T14:20:29;18.70;53.90
20568;DHT22;10442;49.932;11.592;2022-09-21T14:23:28;18.60;54.20
20568;DHT22;10442;49.932;11.592;2022-09-21T14:28:43;18.50;54.50
20568;DHT22;10442;49.932;11.592;2022-09-21T14:31:28;18.40;54.90
20568;DHT22;10442;49.932;11.592;2022-09-21T14:34:00;18.30;54.10
20568;DHT22;10442;49.932;11.592;2022-09-21T14:36:36;18.30;54.70
20568;DHT22;10442;49.932;11.592;2022-09-21T14:39:23;18.20;54.70
20568;DHT22;10442;49.932;11.592;2022-09-21T14:41:54;18.20;53.50
20568;DHT22;10442;49.932;11.592;2022-09-21T14:44:26;18.20;54.30
20568;DHT22;10442;49.932;11.592;2022-09-21T14:47:31;18.10;53.30
20568;DHT22;10442;49.932;11.592;2022-09-21T14:50:23;18.00;51.90
20568;DHT22;10442;49.932;11.592;2022-09-21T14:56:20;17.90;51.60
20568;DHT22;10442;49.932;11.592;2022-09-21T15:02:25;17.90;52.80
20568;DHT22;10442;49.932;11.592;2022-09-21T15:05:14;17.90;53.30
20568;DHT22;10442;49.932;11.592;2022-09-21T15:08:14;17.90;53.50
20568;DHT22;10442;49.932;11.592;2022-09-21T15:11:26;17.80;54.10
20568;DHT22;10442;49.932;11.592;2022-09-21T15:14:08;17.80;53.70
20568;DHT22;10442;49.932;11.592;2022-09-21T15:16:41;17.80;53.70
20568;DHT22;10442;49.932;11.592;2022-09-21T15:19:14;17.80;53.70
20568;DHT22;10442;49.932;11.592;2022-09-21T15:21:45;17.70;53.60
20568;DHT22;10442;49.932;11.592;2022-09-21T15:24:26;17.70;53.70
20568;DHT22;10442;49.932;11.592;2022-09-21T15:27:16;17.70;53.90
20568;DHT22;10442;49.932;11.592;2022-09-21T15:29:46;17.60;53.70
20568;DHT22;10442;49.932;11.592;2022-09-21T15:32:26;17.60;53.60
20568;DHT22;10442;49.932;11.592;2022-09-21T15:34:59;17.60;53.60
20568;DHT22;10442;49.932;11.592;2022-09-21T15:37:35;17.60;54.70
20568;DHT22;10442;49.932;11.592;2022-09-21T15:40:05;17.60;54.30
20568;DHT22;10442;49.932;11.592;2022-09-21T15:42:45;17.60;54.20
20568;DHT22;10442;49.932;11.592;2022-09-21T15:48:00;17.50;53.50
20568;DHT22;10442;49.932;11.592;2022-09-21T15:50:29;17.50;53.40
20568;DHT22;10442;49.932;11.592;2022-09-21T15:53:02;17.50;53.50
20568;DHT22;10442;49.932;11.592;2022-09-21T15:55:31;17.40;53.80
20568;DHT22;10442;49.932;11.592;2022-09-21T15:58:00;17.40;53.80
20568;DHT22;10442;49.932;11.592;2022-09-21T16:00:32;17.40;54.40
20568;DHT22;10442;49.932;11.592;2022-09-21T16:03:21;17.40;54.50
20568;DHT22;10442;49.932;11.592;2022-09-21T16:05:52;17.30;54.90
20568;DHT22;10442;49.932;11.592;2022-09-21T16:08:40;17.30;54.90
20568;DHT22;10442;49.932;11.592;2022-09-21T16:14:09;17.20;55.50
20568;DHT22;10442;49.932;11.592;2022-09-21T16:22:37;17.00;55.50
20568;DHT22;10442;49.932;11.592;2022-09-21T16:27:56;16.80;56.10
20568;DHT22;10442;49.932;11.592;2022-09-21T16:38:49;16.50;57.00
20568;DHT22;10442;49.932;11.592;2022-09-21T16:41:16;16.40;57.10
20568;DHT22;10442;49.932;11.592;2022-09-21T16:43:45;16.40;57.30
20568;DHT22;10442;49.932;11.592;2022-09-21T16:46:13;16.30;57.40
20568;DHT22;10442;49.932;11.592;2022-09-21T16:48:40;16.30;57.50
20568;DHT22;10442;49.932;11.592;2022-09-21T16:51:11;16.20;57.80
20568;DHT22;10442;49.932;11.592;2022-09-21T16:53:39;16.10;57.90
20568;DHT22;10442;49.932;11.592;2022-09-21T16:56:12;16.10;57.90
20568;DHT22;10442;49.932;11.592;2022-09-21T16:58:42;16.00;58.10
20568;DHT22;10442;49.932;11.592;2022-09-21T17:01:12;16.00;58.40
20568;DHT22;10442;49.932;11.592;2022-09-21T17:03:42;15.90;58.50
20568;DHT22;10442;49.932;11.592;2022-09-21T17:06:16;15.80;58.70
20568;DHT22;10442;49.932;11.592;2022-09-21T17:08:45;15.70;59.10
20568;DHT22;10442;49.932;11.592;2022-09-21T17:11:17;15.70;59.20
20568;DHT22;10442;49.932;11.592;2022-09-21T17:13:47;15.60;59.30
20568;DHT22;10442;49.932;11.592;2022-09-21T17:16:17;15.50;59.40
20568;DHT22;10442;49.932;11.592;2022-09-21T17:18:46;15.40;59.70
20568;DHT22;10442;49.932;11.592;2022-09-21T17:21:15;15.40;60.00
20568;DHT22;10442;49.932;11.592;2022-09-21T17:23:43;15.30;60.10
20568;DHT22;10442;49.932;11.592;2022-09-21T17:26:13;15.20;60.00
20568;DHT22;10442;49.932;11.592;2022-09-21T17:28:44;15.10;60.00
20568;DHT22;10442;49.932;11.592;2022-09-21T17:31:13;15.10;60.90
20568;DHT22;10442;49.932;11.592;2022-09-21T17:33:45;15.00;61.60
20568;DHT22;10442;49.932;11.592;2022-09-21T17:36:17;14.90;62.30
20568;DHT22;10442;49.932;11.592;2022-09-21T17:38:45;14.90;62.70
20568;DHT22;10442;49.932;11.592;2022-09-21T17:44:14;14.70;64.30
20568;DHT22;10442;49.932;11.592;2022-09-21T17:46:50;14.60;64.20
20568;DHT22;10442;49.932;11.592;2022-09-21T17:49:20;14.50;63.90
20568;DHT22;10442;49.932;11.592;2022-09-21T17:51:48;14.40;63.80
20568;DHT22;10442;49.932;11.592;2022-09-21T17:54:34;14.30;64.10
20568;DHT22;10442;49.932;11.592;2022-09-21T18:00:07;14.10;64.10
20568;DHT22;10442;49.932;11.592;2022-09-21T18:02:37;14.00;64.40
20568;DHT22;10442;49.932;11.592;2022-09-21T18:05:16;13.90;64.40
20568;DHT22;10442;49.932;11.592;2022-09-21T18:07:45;13.80;65.30
20568;DHT22;10442;49.932;11.592;2022-09-21T18:10:13;13.80;65.30
20568;DHT22;10442;49.932;11.592;2022-09-21T18:12:47;13.70;65.20
20568;DHT22;10442;49.932;11.592;2022-09-21T18:18:11;13.60;66.00
20568;DHT22;10442;49.932;11.592;2022-09-21T18:20:52;13.50;66.60
20568;DHT22;10442;49.932;11.592;2022-09-21T18:24:05;13.40;66.50
20568;DHT22;10442;49.932;11.592;2022-09-21T18:26:34;13.30;66.80
20568;DHT22;10442;49.932;11.592;2022-09-21T18:29:01;13.30;66.60
20568;DHT22;10442;49.932;11.592;2022-09-21T18:32:06;13.20;66.90
20568;DHT22;10442;49.932;11.592;2022-09-21T18:35:02;13.10;67.00
20568;DHT22;10442;49.932;11.592;2022-09-21T18:40:39;13.00;67.10
20568;DHT22;10442;49.932;11.592;2022-09-21T18:45:57;12.80;67.70
20568;DHT22;10442;49.932;11.592;2022-09-21T18:51:28;12.60;68.10
20568;DHT22;10442;49.932;11.592;2022-09-21T18:53:57;12.60;68.60
20568;DHT22;10442;49.932;11.592;2022-09-21T18:56:27;12.50;68.70
20568;DHT22;10442;49.932;11.592;2022-09-21T18:58:58;12.50;68.90
20568;DHT22;10442;49.932;11.592;2022-09-21T19:01:26;12.40;69.00
20568;DHT22;10442;49.932;11.592;2022-09-21T19:03:56;12.40;69.10
20568;DHT22;10442;49.932;11.592;2022-09-21T19:14:35;12.20;69.50
20568;DHT22;10442;49.932;11.592;2022-09-21T19:17:08;12.10;69.90
20568;DHT22;10442;49.932;11.592;2022-09-21T19:19:40;12.00;69.30
20568;DHT22;10442;49.932;11.592;2022-09-21T19:22:21;12.00;69.50
20568;DHT22;10442;49.932;11.592;2022-09-21T19:25:26;11.90;70.10